Terminal Aerodrome Forecast
Issued by NWS Twin Cities, MN

Home | Current Version | Previous Version | Text Only | Print | Product List | Glossary Off
Versions: 1 2 3 4 5 6 7 8 9 10 11 12 13 14 15 16 17 18 19 20 21 22 23

000
FTUS43 KMPX 231400 AAA
TAFMSP
TAF AMD
KMSP 231457Z 2315/2418 01012KT 5SM -DZRA BR OVC012
      TEMPO 2316/2320 2SM -SN OVC009
     FM232000 35012KT 4SM -SN BR OVC010
     FM240600 33012KT 6SM BR OVC008=

USA.gov is the U.S. government's official web portal to all federal, state and local government web resources and services.